createdAt,value
2022-08-04T00:00:56.285Z,18.34
2022-08-04T00:03:28.047Z,18.27
2022-08-04T00:06:07.139Z,18.26
2022-08-04T00:08:53.111Z,18.31
2022-08-04T00:11:30.600Z,18.44
2022-08-04T00:14:14.674Z,18.41
2022-08-04T00:16:43.850Z,18.46
2022-08-04T00:19:17.385Z,18.51
2022-08-04T00:22:00.223Z,18.47
2022-08-04T00:24:31.303Z,18.53
2022-08-04T00:26:58.516Z,18.61
2022-08-04T00:29:25.376Z,18.61
2022-08-04T00:31:57.503Z,18.52
2022-08-04T00:34:29.476Z,18.38
2022-08-04T00:36:59.047Z,18.28
2022-08-04T00:39:27.141Z,18.23
2022-08-04T00:42:34.376Z,18.17
2022-08-04T00:45:22.066Z,18.15
2022-08-04T00:48:04.354Z,18.16
2022-08-04T00:50:59.432Z,18.05
2022-08-04T00:53:38.441Z,18.10
2022-08-04T00:56:58.482Z,18.16
2022-08-04T00:59:52.556Z,18.05
2022-08-04T01:02:38.642Z,18.04
2022-08-04T01:05:28.050Z,18.07
2022-08-04T01:08:19.109Z,18.09
2022-08-04T01:11:31.314Z,18.09
2022-08-04T01:14:29.829Z,18.00
2022-08-04T01:17:24.428Z,17.95
2022-08-04T01:20:04.105Z,17.92
2022-08-04T01:22:33.577Z,17.80
2022-08-04T01:25:42.181Z,17.79
2022-08-04T01:28:54.752Z,17.85
2022-08-04T01:31:41.028Z,17.83
2022-08-04T01:34:13.541Z,17.73
2022-08-04T01:36:59.559Z,17.64
2022-08-04T01:39:41.372Z,17.57
2022-08-04T01:42:11.335Z,17.57
2022-08-04T01:44:41.768Z,17.50
2022-08-04T01:47:09.801Z,17.51
2022-08-04T01:49:40.162Z,17.49
2022-08-04T01:52:10.385Z,17.42
2022-08-04T01:54:42.587Z,17.40
2022-08-04T01:57:37.674Z,17.39
2022-08-04T02:00:00.530Z,17.37
2022-08-04T02:02:27.717Z,17.40
2022-08-04T02:04:54.303Z,17.45
2022-08-04T02:07:54.878Z,17.45
2022-08-04T02:10:45.668Z,17.37
2022-08-04T02:13:44.228Z,17.28
2022-08-04T02:16:52.791Z,17.34
2022-08-04T02:19:32.238Z,17.43
2022-08-04T02:22:18.511Z,17.48
2022-08-04T02:24:57.475Z,17.49
2022-08-04T02:27:59.729Z,17.54
2022-08-04T02:30:40.288Z,17.50
2022-08-04T02:33:09.418Z,17.55
2022-08-04T02:35:41.043Z,17.47
2022-08-04T02:38:40.387Z,17.34
2022-08-04T02:41:10.990Z,17.25
2022-08-04T02:43:51.569Z,17.23
2022-08-04T02:46:22.094Z,17.17
2022-08-04T02:48:51.454Z,17.07
2022-08-04T02:51:24.522Z,17.08
2022-08-04T02:53:56.375Z,17.08
2022-08-04T02:56:27.582Z,17.10
2022-08-04T02:59:04.259Z,17.04
2022-08-04T03:01:32.039Z,17.05
2022-08-04T03:04:47.772Z,16.98
2022-08-04T03:07:59.814Z,16.89
2022-08-04T03:11:14.179Z,16.84
2022-08-04T03:14:18.297Z,16.87
2022-08-04T03:17:29.967Z,16.94
2022-08-04T03:20:32.870Z,16.95
2022-08-04T03:23:36.902Z,17.02
2022-08-04T03:26:28.738Z,17.03
2022-08-04T03:29:33.155Z,17.04
2022-08-04T03:32:49.732Z,17.06
2022-08-04T03:35:33.859Z,17.02
2022-08-04T03:38:17.586Z,17.00
2022-08-04T03:41:05.345Z,16.95
2022-08-04T03:43:57.447Z,17.00
2022-08-04T03:47:25.907Z,16.90
2022-08-04T03:50:10.399Z,16.93
2022-08-04T03:53:14.000Z,16.96
2022-08-04T03:56:36.020Z,16.98
2022-08-04T04:00:23.010Z,16.96
2022-08-04T04:03:28.606Z,16.85
2022-08-04T04:06:44.852Z,16.86
2022-08-04T04:09:52.942Z,16.96
2022-08-04T04:12:51.292Z,17.06
2022-08-04T04:15:56.350Z,16.78
2022-08-04T04:18:59.834Z,16.82
2022-08-04T04:21:48.379Z,16.98
2022-08-04T04:24:44.187Z,16.99
2022-08-04T04:27:37.712Z,16.88
2022-08-04T04:30:07.891Z,16.91
2022-08-04T04:33:26.819Z,16.99
2022-08-04T04:36:12.065Z,17.02
2022-08-04T04:39:21.582Z,17.02
2022-08-04T04:42:44.412Z,17.04
2022-08-04T04:45:34.416Z,17.06
2022-08-04T04:48:42.928Z,17.12
2022-08-04T04:52:00.194Z,17.15
2022-08-04T04:54:38.619Z,17.19
2022-08-04T04:57:13.549Z,17.28
2022-08-04T05:00:02.198Z,17.36
2022-08-04T05:03:16.881Z,17.42
2022-08-04T05:06:15.127Z,17.38
2022-08-04T05:09:26.150Z,17.41
2022-08-04T05:14:31.418Z,17.37
2022-08-04T05:15:28.846Z,17.41
2022-08-04T05:18:00.588Z,17.49
2022-08-04T05:20:34.259Z,17.60
2022-08-04T05:23:17.066Z,17.62
2022-08-04T05:25:59.464Z,17.67
2022-08-04T05:28:39.505Z,17.79
2022-08-04T05:31:25.970Z,17.88
2022-08-04T05:33:58.393Z,17.93
2022-08-04T05:36:41.215Z,17.97
2022-08-04T05:39:17.375Z,17.95
2022-08-04T05:41:48.177Z,18.00
2022-08-04T05:44:24.721Z,18.10
2022-08-04T05:46:56.417Z,18.19
2022-08-04T05:49:26.816Z,18.28
2022-08-04T05:52:00.181Z,18.37
2022-08-04T05:54:31.970Z,18.46
2022-08-04T05:56:59.865Z,18.59
2022-08-04T05:59:29.809Z,18.73
2022-08-04T06:02:00.044Z,18.81
2022-08-04T06:04:38.922Z,18.85
2022-08-04T06:07:07.822Z,18.89
2022-08-04T06:09:34.940Z,18.93
2022-08-04T06:12:14.327Z,18.99
2022-08-04T06:14:44.647Z,19.06
2022-08-04T06:19:58.941Z,19.12
2022-08-04T06:20:19.630Z,19.20
2022-08-04T06:22:56.111Z,19.27
2022-08-04T06:25:29.619Z,19.38
2022-08-04T06:27:57.859Z,19.50
2022-08-04T06:30:28.419Z,19.62
2022-08-04T06:33:03.622Z,19.74
2022-08-04T06:35:32.395Z,19.82
2022-08-04T06:38:01.527Z,19.97
2022-08-04T06:40:33.488Z,20.11
2022-08-04T06:43:07.445Z,20.24
2022-08-04T06:45:39.859Z,20.40
2022-08-04T06:48:08.738Z,20.54
2022-08-04T06:51:26.531Z,20.65
2022-08-04T06:53:25.901Z,20.82
2022-08-04T06:55:54.705Z,20.99
2022-08-04T06:58:24.027Z,21.13
2022-08-04T07:00:51.942Z,21.25
2022-08-04T07:03:19.922Z,21.38
2022-08-04T07:05:49.028Z,21.55
2022-08-04T07:08:16.764Z,21.69
2022-08-04T07:10:45.149Z,21.90
2022-08-04T07:13:12.880Z,22.07
2022-08-04T07:15:45.167Z,22.21
2022-08-04T07:18:12.143Z,22.38
2022-08-04T07:20:43.918Z,22.54
2022-08-04T07:23:13.625Z,22.67
2022-08-04T07:26:00.387Z,22.79
2022-08-04T07:28:30.355Z,22.95
2022-08-04T07:30:58.205Z,23.11
2022-08-04T07:33:26.299Z,23.21
2022-08-04T07:36:05.728Z,23.29
2022-08-04T07:38:51.088Z,23.43
2022-08-04T07:41:42.544Z,23.54
2022-08-04T07:44:14.382Z,23.70
2022-08-04T07:46:42.343Z,23.82
2022-08-04T07:49:10.079Z,23.94
2022-08-04T07:51:37.775Z,24.04
2022-08-04T07:54:07.627Z,24.16
2022-08-04T07:56:37.294Z,24.22
2022-08-04T07:59:05.075Z,24.32
2022-08-04T08:01:34.300Z,24.42
2022-08-04T08:04:02.146Z,24.50
2022-08-04T08:06:32.972Z,24.60
2022-08-04T08:09:14.693Z,24.63
2022-08-04T08:12:35.880Z,24.70
2022-08-04T08:14:31.559Z,24.76
2022-08-04T08:17:02.224Z,24.86
2022-08-04T08:19:33.055Z,24.95
2022-08-04T08:22:01.764Z,24.99
2022-08-04T08:24:31.687Z,25.05
2022-08-04T08:27:06.716Z,25.13
2022-08-04T08:29:35.605Z,25.27
2022-08-04T08:32:14.641Z,25.40
2022-08-04T08:34:45.018Z,25.52
2022-08-04T08:37:56.281Z,25.64
2022-08-04T08:40:49.023Z,25.77
2022-08-04T08:44:07.121Z,25.87
2022-08-04T08:47:06.899Z,25.92
2022-08-04T08:50:07.377Z,25.96
2022-08-04T08:53:05.891Z,26.04
2022-08-04T08:56:14.934Z,26.17
2022-08-04T08:59:26.299Z,26.29
2022-08-04T09:02:21.798Z,26.44
2022-08-04T09:05:19.154Z,26.57
2022-08-04T09:08:15.360Z,26.69
2022-08-04T09:11:08.896Z,26.89
2022-08-04T09:13:46.129Z,27.07
2022-08-04T09:16:24.476Z,27.14
2022-08-04T09:19:38.051Z,27.19
2022-08-04T09:22:22.335Z,27.33
2022-08-04T09:25:08.676Z,27.42
2022-08-04T09:27:56.834Z,27.30
2022-08-04T09:30:43.528Z,27.49
2022-08-04T09:33:46.067Z,27.65
2022-08-04T09:36:25.743Z,27.80
2022-08-04T09:39:20.255Z,27.88
2022-08-04T09:42:25.678Z,28.01
2022-08-04T09:45:12.481Z,28.09
2022-08-04T09:48:34.168Z,28.16
2022-08-04T09:51:17.112Z,28.24
2022-08-04T09:54:02.722Z,28.35
2022-08-04T09:56:48.882Z,28.46
2022-08-04T09:59:28.016Z,28.48
2022-08-04T10:02:07.403Z,28.61
2022-08-04T10:04:39.406Z,28.78
2022-08-04T10:07:41.205Z,28.79
2022-08-04T10:10:19.048Z,28.94
2022-08-04T10:13:25.703Z,29.02
2022-08-04T10:16:14.416Z,29.14
2022-08-04T10:19:38.895Z,29.25
2022-08-04T10:22:28.664Z,29.32
2022-08-04T10:26:03.101Z,29.54
2022-08-04T10:28:21.210Z,29.65
2022-08-04T10:30:57.770Z,29.84
2022-08-04T10:33:45.124Z,29.95
2022-08-04T10:36:19.576Z,29.99
2022-08-04T10:39:42.759Z,30.10
2022-08-04T10:42:27.325Z,30.23
2022-08-04T10:45:19.310Z,30.30
2022-08-04T10:48:10.735Z,30.50
2022-08-04T10:50:49.023Z,30.55
2022-08-04T10:53:22.694Z,30.58
2022-08-04T10:56:06.323Z,30.63
2022-08-04T10:58:47.587Z,30.33
2022-08-04T11:02:00.758Z,30.47
2022-08-04T11:04:51.991Z,30.62
2022-08-04T11:07:19.982Z,30.76
2022-08-04T11:09:47.397Z,30.85
2022-08-04T11:12:24.037Z,30.86
2022-08-04T11:15:01.459Z,30.90
2022-08-04T11:17:43.606Z,31.00
2022-08-04T11:20:38.556Z,31.02
2022-08-04T11:23:17.439Z,31.16
2022-08-04T11:26:18.491Z,31.37
2022-08-04T11:29:30.058Z,31.56
2022-08-04T11:32:02.665Z,31.72
2022-08-04T11:34:30.751Z,31.78
2022-08-04T11:37:14.234Z,31.83
2022-08-04T11:40:09.552Z,31.91
2022-08-04T11:42:52.099Z,32.03
2022-08-04T11:45:31.223Z,32.00
2022-08-04T11:48:04.510Z,32.02
2022-08-04T11:50:53.076Z,32.12
2022-08-04T11:53:34.689Z,32.33
2022-08-04T11:56:11.161Z,32.47
2022-08-04T11:58:38.511Z,32.51
2022-08-04T12:01:35.646Z,32.52
2022-08-04T12:04:23.751Z,32.53
2022-08-04T12:07:30.704Z,32.43
2022-08-04T12:10:41.109Z,32.33
2022-08-04T12:14:31.799Z,32.28
2022-08-04T12:17:05.567Z,32.47
2022-08-04T12:20:03.200Z,32.63
2022-08-04T12:22:41.637Z,32.82
2022-08-04T12:25:16.067Z,33.01
2022-08-04T12:28:03.046Z,33.12
2022-08-04T12:30:59.071Z,33.25
2022-08-04T12:34:04.763Z,33.27
2022-08-04T12:36:55.661Z,33.26
2022-08-04T12:39:25.631Z,33.28
2022-08-04T12:42:24.078Z,33.17
2022-08-04T12:44:55.954Z,33.11
2022-08-04T12:47:30.169Z,33.03
2022-08-04T12:50:03.368Z,33.02
2022-08-04T12:53:05.175Z,32.97
2022-08-04T12:55:35.644Z,32.98
2022-08-04T12:58:13.394Z,32.88
2022-08-04T13:00:47.172Z,32.80
2022-08-04T13:03:19.599Z,32.57
2022-08-04T13:05:48.990Z,32.52
2022-08-04T13:08:22.007Z,32.56
2022-08-04T13:10:53.483Z,32.62
2022-08-04T13:13:25.551Z,32.53
2022-08-04T13:16:08.443Z,32.39
2022-08-04T13:18:45.801Z,32.34
2022-08-04T13:21:23.182Z,32.27
2022-08-04T13:24:21.233Z,32.07
2022-08-04T13:27:03.738Z,31.99
2022-08-04T13:29:59.973Z,31.88
2022-08-04T13:32:29.903Z,31.82
2022-08-04T13:35:00.584Z,31.82
2022-08-04T13:37:37.015Z,31.73
2022-08-04T13:40:09.177Z,31.78
2022-08-04T13:42:38.811Z,31.78
2022-08-04T13:45:08.888Z,31.84
2022-08-04T13:47:40.183Z,31.85
2022-08-04T13:50:27.117Z,31.88
2022-08-04T13:52:58.152Z,31.96
2022-08-04T13:55:35.223Z,31.99
2022-08-04T13:58:21.278Z,32.11
2022-08-04T14:01:00.955Z,31.96
2022-08-04T14:03:54.945Z,32.09
2022-08-04T14:06:21.444Z,32.22
2022-08-04T14:09:12.976Z,32.24
2022-08-04T14:12:07.145Z,32.29
2022-08-04T14:14:37.223Z,32.24
2022-08-04T14:17:19.831Z,32.07
2022-08-04T14:19:50.273Z,32.09
2022-08-04T14:22:25.738Z,32.14
2022-08-04T14:25:16.061Z,32.19
2022-08-04T14:28:03.288Z,32.24
2022-08-04T14:30:36.830Z,32.30
2022-08-04T14:34:01.550Z,32.35
2022-08-04T14:36:03.860Z,32.40
2022-08-04T14:38:49.168Z,32.41
2022-08-04T14:41:20.776Z,32.41
2022-08-04T14:43:52.891Z,32.41
2022-08-04T14:46:21.238Z,32.54
2022-08-04T14:49:12.740Z,32.70
2022-08-04T14:51:51.330Z,32.84
2022-08-04T14:54:31.445Z,32.76
2022-08-04T14:57:06.599Z,32.72
2022-08-04T15:00:00.657Z,32.65
2022-08-04T15:02:30.034Z,32.65
2022-08-04T15:04:57.538Z,32.65
2022-08-04T15:07:24.772Z,32.50
2022-08-04T15:09:51.626Z,32.47
2022-08-04T15:12:18.430Z,32.50
2022-08-04T15:14:45.322Z,32.49
2022-08-04T15:17:29.082Z,32.35
2022-08-04T15:19:57.679Z,32.16
2022-08-04T15:22:24.552Z,32.15
2022-08-04T15:24:55.230Z,32.11
2022-08-04T15:27:28.563Z,32.18
2022-08-04T15:30:02.291Z,32.23
2022-08-04T15:32:44.114Z,32.30
2022-08-04T15:35:17.161Z,32.41
2022-08-04T15:38:05.877Z,32.43
2022-08-04T15:41:14.219Z,32.47
2022-08-04T15:44:05.985Z,32.56
2022-08-04T15:46:47.497Z,32.75
2022-08-04T15:49:25.770Z,32.79
2022-08-04T15:52:11.821Z,32.80
2022-08-04T15:54:39.794Z,32.74
2022-08-04T15:57:10.378Z,32.56
2022-08-04T15:59:57.311Z,32.51
2022-08-04T16:02:43.019Z,32.41
2022-08-04T16:05:18.425Z,32.50
2022-08-04T16:08:04.500Z,32.31
2022-08-04T16:10:30.887Z,32.25
2022-08-04T16:13:04.326Z,32.22
2022-08-04T16:15:41.003Z,32.16
2022-08-04T16:18:25.554Z,32.13
2022-08-04T16:20:59.225Z,32.09
2022-08-04T16:23:56.986Z,32.03
2022-08-04T16:26:42.409Z,32.02
2022-08-04T16:29:31.878Z,32.00
2022-08-04T16:32:04.524Z,31.75
2022-08-04T16:34:55.289Z,31.83
2022-08-04T16:37:32.437Z,31.82
2022-08-04T16:40:38.468Z,31.67
2022-08-04T16:43:11.467Z,31.52
2022-08-04T16:45:47.533Z,31.36
2022-08-04T16:48:17.645Z,31.32
2022-08-04T16:50:55.431Z,31.31
2022-08-04T16:53:52.729Z,31.30
2022-08-04T16:56:18.875Z,31.23
2022-08-04T16:58:53.050Z,31.26
2022-08-04T17:01:33.723Z,31.20
2022-08-04T17:04:06.790Z,31.11
2022-08-04T17:06:37.677Z,31.04
2022-08-04T17:09:09.676Z,30.89
2022-08-04T17:11:36.290Z,30.78
2022-08-04T17:14:05.846Z,30.68
2022-08-04T17:16:43.425Z,30.44
2022-08-04T17:19:25.234Z,30.23
2022-08-04T17:22:07.248Z,30.17
2022-08-04T17:24:40.448Z,30.07
2022-08-04T17:28:09.085Z,29.96
2022-08-04T17:29:54.614Z,29.81
2022-08-04T17:32:23.300Z,29.81
2022-08-04T17:34:54.671Z,29.80
2022-08-04T17:37:38.870Z,29.65
2022-08-04T17:40:12.892Z,29.43
2022-08-04T17:42:41.728Z,29.15
2022-08-04T17:45:50.212Z,29.04
2022-08-04T17:47:59.337Z,28.94
2022-08-04T17:50:34.785Z,28.75
2022-08-04T17:53:12.074Z,28.65
2022-08-04T17:55:47.037Z,28.48
2022-08-04T17:58:20.914Z,28.40
2022-08-04T18:03:51.630Z,28.25
2022-08-04T18:06:33.019Z,28.12
2022-08-04T18:09:22.487Z,28.12
2022-08-04T18:11:59.160Z,28.06
2022-08-04T18:14:29.007Z,28.03
2022-08-04T18:16:56.047Z,27.92
2022-08-04T18:19:22.715Z,27.78
2022-08-04T18:21:59.720Z,27.80
2022-08-04T18:24:34.758Z,27.80
2022-08-04T18:27:20.237Z,27.62
2022-08-04T18:29:56.498Z,27.56
2022-08-04T18:32:34.239Z,27.51
2022-08-04T18:38:11.453Z,27.47
2022-08-04T18:40:53.111Z,27.45
2022-08-04T18:43:28.677Z,27.40
2022-08-04T18:45:59.448Z,27.27
2022-08-04T18:48:36.153Z,27.26
2022-08-04T18:51:23.275Z,27.21
2022-08-04T18:53:58.306Z,27.17
2022-08-04T18:59:14.548Z,27.08
2022-08-04T19:02:13.545Z,27.06
2022-08-04T19:04:36.757Z,27.03
2022-08-04T19:07:24.600Z,27.02
2022-08-04T19:09:57.252Z,26.88
2022-08-04T19:12:26.882Z,26.84
2022-08-04T19:14:58.806Z,26.78
2022-08-04T19:17:52.855Z,26.74
2022-08-04T19:20:25.143Z,26.70
2022-08-04T19:24:11.474Z,26.64
2022-08-04T19:25:59.413Z,26.54
2022-08-04T19:28:28.093Z,26.43
2022-08-04T19:30:58.792Z,26.37
2022-08-04T19:33:25.661Z,26.28
2022-08-04T19:36:12.176Z,26.11
2022-08-04T19:38:38.910Z,26.08
2022-08-04T19:41:14.352Z,26.08
2022-08-04T19:43:43.647Z,25.72
2022-08-04T19:46:12.328Z,25.80
2022-08-04T19:48:40.142Z,25.75
2022-08-04T19:51:07.745Z,25.69
2022-08-04T19:53:37.864Z,25.67
2022-08-04T19:56:09.796Z,25.65
2022-08-04T19:58:38.433Z,25.65
2022-08-04T20:01:05.020Z,25.62
2022-08-04T20:04:09.620Z,25.51
2022-08-04T20:06:37.808Z,25.38
2022-08-04T20:09:04.407Z,25.38
2022-08-04T20:11:50.928Z,25.32
2022-08-04T20:14:17.966Z,25.27
2022-08-04T20:16:46.471Z,25.25
2022-08-04T20:19:14.227Z,25.23
2022-08-04T20:21:55.275Z,25.21
2022-08-04T20:27:15.934Z,24.96
2022-08-04T20:29:48.694Z,24.81
2022-08-04T20:32:23.191Z,24.68
2022-08-04T20:34:52.183Z,24.58
2022-08-04T20:37:24.415Z,24.42
2022-08-04T20:40:02.162Z,24.31
2022-08-04T20:42:33.918Z,24.22
2022-08-04T20:45:01.889Z,24.06
2022-08-04T20:47:35.049Z,24.03
2022-08-04T20:50:08.714Z,24.01
2022-08-04T20:52:37.102Z,23.93
2022-08-04T20:55:05.937Z,23.85
2022-08-04T20:57:48.812Z,23.77
2022-08-04T21:00:17.632Z,23.67
2022-08-04T21:02:53.280Z,23.28
2022-08-04T21:05:20.436Z,23.38
2022-08-04T21:07:48.850Z,23.39
2022-08-04T21:10:16.963Z,23.30
2022-08-04T21:12:43.652Z,23.26
2022-08-04T21:15:25.147Z,23.18
2022-08-04T21:17:59.164Z,23.03
2022-08-04T21:20:43.137Z,22.94
2022-08-04T21:23:10.050Z,22.88
2022-08-04T21:25:42.964Z,22.88
2022-08-04T21:28:10.799Z,22.82
2022-08-04T21:30:54.078Z,22.78
2022-08-04T21:33:28.182Z,22.68
2022-08-04T21:36:19.469Z,22.62
2022-08-04T21:38:51.718Z,22.62
2022-08-04T21:41:20.346Z,22.59
2022-08-04T21:43:51.904Z,22.50
2022-08-04T21:46:19.849Z,22.48
2022-08-04T21:48:49.217Z,22.48
2022-08-04T21:51:56.790Z,22.53
2022-08-04T21:54:07.443Z,22.49
2022-08-04T21:56:34.756Z,22.42
2022-08-04T21:59:05.683Z,22.44
2022-08-04T22:01:50.613Z,22.37
2022-08-04T22:04:19.473Z,22.39
2022-08-04T22:06:47.689Z,22.38
2022-08-04T22:09:18.815Z,22.41
2022-08-04T22:11:50.802Z,22.54
2022-08-04T22:14:29.248Z,22.61
2022-08-04T22:17:01.153Z,22.72
2022-08-04T22:19:40.821Z,22.81
2022-08-04T22:22:25.397Z,22.64
2022-08-04T22:24:53.686Z,22.80
2022-08-04T22:27:38.650Z,22.90
2022-08-04T22:30:13.383Z,22.96
2022-08-04T22:32:46.468Z,22.97
2022-08-04T22:35:35.695Z,22.99
2022-08-04T22:38:06.864Z,22.96
2022-08-04T22:40:47.599Z,22.95
2022-08-04T22:43:32.857Z,22.94
2022-08-04T22:46:07.647Z,22.90
2022-08-04T22:48:38.719Z,22.85
2022-08-04T22:51:07.418Z,22.77
2022-08-04T22:53:35.575Z,22.75
2022-08-04T22:56:10.056Z,22.68
2022-08-04T22:58:40.305Z,22.63
2022-08-04T23:01:08.740Z,22.63
2022-08-04T23:03:38.653Z,22.61
2022-08-04T23:06:11.946Z,22.59
2022-08-04T23:08:43.295Z,22.60
2022-08-04T23:11:15.046Z,22.56
2022-08-04T23:13:41.836Z,22.55
2022-08-04T23:16:09.843Z,22.55
2022-08-04T23:18:41.752Z,22.53
2022-08-04T23:21:10.352Z,22.53
2022-08-04T23:23:38.298Z,22.54
2022-08-04T23:26:27.846Z,22.53
2022-08-04T23:28:56.379Z,22.49
2022-08-04T23:31:24.016Z,22.47
2022-08-04T23:33:52.418Z,22.50
2022-08-04T23:36:30.089Z,22.53
2022-08-04T23:39:03.966Z,22.51
2022-08-04T23:41:53.659Z,22.51
2022-08-04T23:44:24.454Z,22.54
2022-08-04T23:46:58.808Z,22.58
2022-08-04T23:49:44.121Z,22.60
2022-08-04T23:52:27.791Z,22.55
2022-08-04T23:55:00.954Z,22.57
2022-08-04T23:58:05.148Z,22.58
